createdAt,value
2018-12-20T00:00:45.730Z,5.80
2018-12-20T00:03:20.078Z,5.70
2018-12-20T00:05:54.052Z,5.70
2018-12-20T00:08:28.488Z,5.70
2018-12-20T00:11:02.768Z,5.70
2018-12-20T00:13:36.804Z,5.70
2018-12-20T00:16:10.957Z,5.70
2018-12-20T00:18:45.587Z,5.70
2018-12-20T00:21:20.097Z,5.70
2018-12-20T00:23:54.141Z,5.70
2018-12-20T00:26:28.358Z,5.60
2018-12-20T00:29:02.792Z,5.70
2018-12-20T00:31:36.891Z,5.70
2018-12-20T00:34:11.201Z,5.70
2018-12-20T00:36:45.889Z,5.70
2018-12-20T00:39:20.110Z,5.70
2018-12-20T00:41:54.194Z,5.70
2018-12-20T00:44:28.501Z,5.70
2018-12-20T00:47:02.983Z,5.80
2018-12-20T00:49:37.091Z,5.80
2018-12-20T00:52:11.223Z,5.80
2018-12-20T00:54:45.436Z,5.80
2018-12-20T00:57:19.643Z,5.80
2018-12-20T00:59:53.758Z,5.80
2018-12-20T01:02:28.259Z,5.70
2018-12-20T01:05:02.597Z,5.70
2018-12-20T01:07:36.737Z,5.70
2018-12-20T01:10:10.901Z,5.70
2018-12-20T01:12:44.876Z,5.70
2018-12-20T01:15:19.279Z,5.70
2018-12-20T01:17:53.370Z,5.70
2018-12-20T01:20:27.309Z,5.70
2018-12-20T01:23:01.494Z,5.70
2018-12-20T01:25:35.678Z,5.70
2018-12-20T01:28:10.109Z,5.70
2018-12-20T01:30:44.246Z,5.70
2018-12-20T01:33:18.463Z,5.80
2018-12-20T01:35:53.108Z,5.80
2018-12-20T01:38:27.450Z,5.80
2018-12-20T01:41:01.395Z,5.70
2018-12-20T01:43:35.556Z,5.70
2018-12-20T01:46:09.877Z,5.70
2018-12-20T01:48:44.183Z,5.70
2018-12-20T01:51:18.447Z,5.70
2018-12-20T01:53:52.860Z,5.70
2018-12-20T01:56:26.769Z,5.70
2018-12-20T01:59:00.739Z,5.70
2018-12-20T02:01:34.758Z,5.60
2018-12-20T02:04:09.256Z,5.60
2018-12-20T02:06:43.388Z,5.60
2018-12-20T02:09:17.740Z,5.60
2018-12-20T02:11:52.433Z,5.50
2018-12-20T02:14:26.632Z,5.50
2018-12-20T02:17:01.377Z,5.50
2018-12-20T02:19:35.529Z,5.50
2018-12-20T02:22:09.462Z,5.50
2018-12-20T02:24:43.522Z,5.50
2018-12-20T02:27:17.554Z,5.50
2018-12-20T02:29:51.818Z,5.40
2018-12-20T02:32:25.821Z,5.40
2018-12-20T02:35:00.154Z,5.40
2018-12-20T02:37:34.137Z,5.50
2018-12-20T02:40:08.335Z,5.50
2018-12-20T02:42:42.483Z,5.40
2018-12-20T02:45:17.120Z,5.50
2018-12-20T02:47:51.279Z,5.40
2018-12-20T02:50:25.605Z,5.40
2018-12-20T02:52:59.759Z,5.40
2018-12-20T02:55:34.073Z,5.40
2018-12-20T02:58:08.520Z,5.40
2018-12-20T03:00:42.753Z,5.30
2018-12-20T03:03:17.369Z,5.30
2018-12-20T03:05:52.044Z,5.30
2018-12-20T03:08:26.385Z,5.30
2018-12-20T03:11:00.744Z,5.30
2018-12-20T03:13:35.266Z,5.30
2018-12-20T03:16:09.836Z,5.30
2018-12-20T03:18:43.944Z,5.20
2018-12-20T03:21:18.463Z,5.20
2018-12-20T03:23:52.589Z,5.10
2018-12-20T03:26:27.033Z,5.10
2018-12-20T03:29:01.403Z,5.10
2018-12-20T03:31:35.891Z,5.00
2018-12-20T03:34:09.704Z,5.00
2018-12-20T03:36:44.305Z,5.00
2018-12-20T03:39:18.660Z,4.90
2018-12-20T03:41:53.060Z,5.00
2018-12-20T03:44:27.390Z,4.90
2018-12-20T03:47:02.029Z,4.90
2018-12-20T03:49:36.044Z,4.90
2018-12-20T03:52:10.386Z,4.90
2018-12-20T03:54:44.514Z,4.90
2018-12-20T03:57:18.777Z,5.00
2018-12-20T03:59:52.870Z,5.00
2018-12-20T04:02:27.365Z,5.00
2018-12-20T04:05:01.568Z,5.00
2018-12-20T04:07:35.902Z,5.10
2018-12-20T04:10:10.120Z,5.10
2018-12-20T04:12:44.463Z,5.10
2018-12-20T04:15:18.612Z,5.10
2018-12-20T04:17:52.986Z,5.20
2018-12-20T04:20:27.165Z,5.20
2018-12-20T04:23:01.468Z,5.20
2018-12-20T04:25:35.586Z,5.20
2018-12-20T04:28:09.806Z,5.20
2018-12-20T04:30:44.308Z,5.20
2018-12-20T04:33:18.974Z,5.20
2018-12-20T04:35:53.769Z,5.10
2018-12-20T04:38:28.383Z,5.20
2018-12-20T04:41:02.706Z,5.20
2018-12-20T04:43:36.920Z,5.10
2018-12-20T04:46:11.153Z,5.10
2018-12-20T04:48:45.579Z,5.10
2018-12-20T04:51:19.827Z,5.10
2018-12-20T04:53:54.171Z,5.10
2018-12-20T04:56:28.548Z,5.10
2018-12-20T04:59:03.072Z,5.10
2018-12-20T05:01:37.567Z,5.10
2018-12-20T05:04:11.745Z,5.00
2018-12-20T05:06:46.455Z,5.00
2018-12-20T05:09:21.947Z,5.00
2018-12-20T05:11:57.090Z,5.00
2018-12-20T05:14:31.747Z,4.90
2018-12-20T05:17:06.593Z,4.90
2018-12-20T05:19:40.841Z,4.90
2018-12-20T05:22:15.139Z,4.90
2018-12-20T05:24:49.278Z,4.90
2018-12-20T05:27:23.546Z,4.90
2018-12-20T05:29:57.653Z,4.90
2018-12-20T05:32:32.098Z,5.00
2018-12-20T05:35:05.962Z,5.00
2018-12-20T05:37:39.945Z,5.00
2018-12-20T05:40:14.352Z,5.00
2018-12-20T05:42:48.584Z,5.00
2018-12-20T05:45:22.693Z,5.00
2018-12-20T05:47:57.105Z,5.10
2018-12-20T05:50:31.360Z,5.10
2018-12-20T05:53:05.589Z,5.10
2018-12-20T05:55:39.645Z,5.10
2018-12-20T05:58:13.902Z,5.10
2018-12-20T06:00:48.459Z,5.20
2018-12-20T06:03:22.642Z,5.20
2018-12-20T06:05:56.889Z,5.20
2018-12-20T06:08:31.011Z,5.20
2018-12-20T06:11:05.200Z,5.30
2018-12-20T06:13:39.272Z,5.20
2018-12-20T06:16:13.777Z,5.30
2018-12-20T06:18:48.030Z,5.30
2018-12-20T06:21:22.064Z,5.30
2018-12-20T06:23:56.408Z,5.30
2018-12-20T06:26:30.295Z,5.30
2018-12-20T06:29:04.291Z,5.40
2018-12-20T06:31:38.284Z,5.40
2018-12-20T06:34:12.338Z,5.40
2018-12-20T06:36:46.630Z,5.40
2018-12-20T06:39:20.766Z,5.40
2018-12-20T06:41:54.916Z,5.40
2018-12-20T06:44:30.114Z,5.40
2018-12-20T06:47:04.107Z,5.40
2018-12-20T06:49:38.272Z,5.40
2018-12-20T06:52:12.285Z,5.40
2018-12-20T06:54:46.534Z,5.30
2018-12-20T06:57:20.639Z,5.30
2018-12-20T06:59:54.852Z,5.30
2018-12-20T07:02:29.009Z,5.30
2018-12-20T07:05:03.225Z,5.30
2018-12-20T07:07:37.080Z,5.20
2018-12-20T07:10:11.611Z,5.20
2018-12-20T07:12:45.549Z,5.20
2018-12-20T07:15:19.676Z,5.20
2018-12-20T07:17:53.734Z,5.20
2018-12-20T07:20:27.704Z,5.10
2018-12-20T07:23:01.785Z,5.10
2018-12-20T07:25:35.882Z,5.20
2018-12-20T07:28:09.884Z,5.10
2018-12-20T07:30:44.331Z,5.10
2018-12-20T07:33:18.316Z,5.10
2018-12-20T07:35:52.302Z,5.00
2018-12-20T07:38:26.145Z,5.00
2018-12-20T07:41:00.209Z,5.00
2018-12-20T07:43:34.043Z,5.00
2018-12-20T07:46:08.362Z,5.00
2018-12-20T07:48:42.340Z,5.00
2018-12-20T07:51:16.487Z,5.00
2018-12-20T07:53:50.489Z,5.00
2018-12-20T07:56:24.603Z,5.00
2018-12-20T07:58:58.614Z,4.90
2018-12-20T08:01:32.713Z,4.90
2018-12-20T08:04:06.631Z,4.80
2018-12-20T08:06:40.639Z,4.80
2018-12-20T08:09:14.617Z,4.90
2018-12-20T08:11:48.875Z,5.00
2018-12-20T08:14:22.950Z,5.00
2018-12-20T08:16:57.057Z,5.10
2018-12-20T08:19:36.323Z,5.20
2018-12-20T08:22:07.372Z,5.20
2018-12-20T08:24:41.350Z,5.30
2018-12-20T08:27:15.482Z,5.30
2018-12-20T08:29:49.514Z,5.30
2018-12-20T08:32:23.603Z,5.40
2018-12-20T08:34:57.634Z,5.40
2018-12-20T08:37:32.247Z,5.50
2018-12-20T08:40:08.522Z,5.50
2018-12-20T08:42:42.492Z,5.60
2018-12-20T08:45:16.558Z,5.70
2018-12-20T08:47:50.750Z,5.80
2018-12-20T08:50:24.600Z,5.80
2018-12-20T08:52:58.678Z,5.80
2018-12-20T08:55:32.796Z,5.80
2018-12-20T08:58:07.099Z,5.90
2018-12-20T09:00:41.151Z,5.90
2018-12-20T09:03:15.375Z,5.90
2018-12-20T09:05:49.194Z,5.90
2018-12-20T09:08:25.340Z,5.90
2018-12-20T09:10:59.426Z,5.90
2018-12-20T09:13:33.740Z,6.00
2018-12-20T09:16:08.903Z,6.00
2018-12-20T09:18:43.209Z,6.00
2018-12-20T09:21:17.347Z,6.10
2018-12-20T09:23:51.422Z,6.10
2018-12-20T09:26:26.152Z,6.20
2018-12-20T09:29:00.490Z,6.30
2018-12-20T09:31:34.627Z,6.20
2018-12-20T09:34:09.046Z,6.30
2018-12-20T09:36:43.041Z,6.30
2018-12-20T09:39:17.130Z,6.30
2018-12-20T09:41:52.219Z,6.30
2018-12-20T09:44:26.202Z,6.30
2018-12-20T09:47:11.728Z,6.30
2018-12-20T09:49:41.947Z,6.30
2018-12-20T09:52:16.002Z,6.30
2018-12-20T09:54:50.206Z,6.30
2018-12-20T09:57:24.054Z,6.30
2018-12-20T09:59:58.331Z,6.30
2018-12-20T10:02:32.302Z,6.30
2018-12-20T10:05:06.662Z,6.30
2018-12-20T10:07:40.569Z,6.30
2018-12-20T10:10:14.910Z,6.30
2018-12-20T10:12:48.955Z,6.30
2018-12-20T10:15:23.202Z,6.30
2018-12-20T10:17:57.090Z,6.30
2018-12-20T10:20:31.074Z,6.30
2018-12-20T10:23:05.190Z,6.30
2018-12-20T10:25:39.377Z,6.30
2018-12-20T10:28:14.242Z,6.30
2018-12-20T10:30:48.730Z,6.30
2018-12-20T10:33:22.639Z,6.20
2018-12-20T10:35:56.973Z,6.30
2018-12-20T10:38:32.069Z,6.30
2018-12-20T10:41:06.316Z,6.40
2018-12-20T10:43:40.190Z,6.40
2018-12-20T10:46:14.350Z,6.40
2018-12-20T10:48:48.179Z,6.50
2018-12-20T10:51:22.357Z,6.50
2018-12-20T10:53:56.187Z,6.70
2018-12-20T10:56:30.683Z,6.80
2018-12-20T10:59:04.648Z,6.90
2018-12-20T11:01:44.175Z,7.00
2018-12-20T11:04:20.127Z,7.10
2018-12-20T11:06:59.645Z,7.20
2018-12-20T11:09:39.127Z,7.20
2018-12-20T11:12:15.094Z,7.30
2018-12-20T11:14:50.282Z,7.20
2018-12-20T11:17:24.400Z,7.20
2018-12-20T11:19:58.671Z,7.20
2018-12-20T11:22:32.711Z,7.10
2018-12-20T11:25:06.727Z,7.10
2018-12-20T11:27:40.854Z,7.20
2018-12-20T11:30:15.160Z,7.00
2018-12-20T11:32:49.274Z,7.00
2018-12-20T11:35:24.154Z,7.00
2018-12-20T11:37:58.220Z,7.00
2018-12-20T11:40:32.391Z,7.00
2018-12-20T11:43:06.366Z,7.00
2018-12-20T11:45:40.402Z,7.00
2018-12-20T11:48:14.552Z,7.00
2018-12-20T11:50:48.507Z,7.10
2018-12-20T11:53:23.621Z,7.10
2018-12-20T11:55:58.541Z,7.20
2018-12-20T11:58:32.874Z,7.10
2018-12-20T12:01:06.990Z,7.10
2018-12-20T12:03:41.206Z,7.10
2018-12-20T12:06:15.420Z,7.10
2018-12-20T12:08:50.355Z,7.20
2018-12-20T12:11:24.182Z,7.20
2018-12-20T12:13:58.267Z,7.30
2018-12-20T12:16:32.312Z,7.40
2018-12-20T12:19:06.493Z,7.40
2018-12-20T12:21:40.513Z,7.50
2018-12-20T12:24:14.562Z,7.40
2018-12-20T12:26:48.602Z,7.40
2018-12-20T12:29:22.701Z,7.40
2018-12-20T12:31:56.793Z,7.30
2018-12-20T12:34:30.990Z,7.30
2018-12-20T12:37:05.035Z,7.20
2018-12-20T12:39:38.948Z,7.30
2018-12-20T12:42:12.928Z,7.20
2018-12-20T12:44:46.926Z,7.20
2018-12-20T12:47:22.690Z,7.30
2018-12-20T12:49:57.519Z,7.20
2018-12-20T12:52:31.829Z,7.30
2018-12-20T12:55:06.003Z,7.30
2018-12-20T12:57:40.772Z,7.30
2018-12-20T13:00:19.435Z,7.40
2018-12-20T13:02:53.345Z,7.40
2018-12-20T13:05:27.536Z,7.40
2018-12-20T13:08:01.594Z,7.50
2018-12-20T13:10:35.743Z,7.50
2018-12-20T13:13:09.597Z,7.50
2018-12-20T13:15:43.752Z,7.50
2018-12-20T13:18:17.667Z,7.50
2018-12-20T13:20:51.953Z,7.50
2018-12-20T13:23:26.053Z,7.60
2018-12-20T13:26:00.326Z,7.50
2018-12-20T13:28:35.585Z,7.50
2018-12-20T13:31:09.989Z,7.60
2018-12-20T13:33:44.094Z,7.60
2018-12-20T13:36:18.226Z,7.60
2018-12-20T13:38:52.122Z,7.60
2018-12-20T13:41:26.733Z,7.60
2018-12-20T13:44:00.759Z,7.60
2018-12-20T13:46:34.746Z,7.70
2018-12-20T13:49:08.721Z,7.70
2018-12-20T13:51:42.792Z,7.70
2018-12-20T13:54:16.811Z,7.80
2018-12-20T13:56:50.915Z,7.80
2018-12-20T13:59:24.959Z,7.70
2018-12-20T14:01:59.185Z,7.70
2018-12-20T14:04:33.274Z,7.70
2018-12-20T14:07:07.476Z,7.60
2018-12-20T14:09:41.437Z,7.60
2018-12-20T14:12:15.571Z,7.50
2018-12-20T14:14:49.638Z,7.50
2018-12-20T14:17:23.668Z,7.50
2018-12-20T14:19:57.697Z,7.60
2018-12-20T14:22:31.759Z,7.50
2018-12-20T14:25:05.835Z,7.60
2018-12-20T14:27:40.027Z,7.60
2018-12-20T14:30:14.158Z,7.50
2018-12-20T14:32:48.311Z,7.50
2018-12-20T14:35:22.112Z,7.50
2018-12-20T14:37:56.138Z,7.60
2018-12-20T14:40:30.103Z,7.50
2018-12-20T14:43:04.367Z,7.50
2018-12-20T14:45:38.948Z,7.50
2018-12-20T14:48:15.074Z,7.50
2018-12-20T14:50:49.031Z,7.60
2018-12-20T14:53:23.263Z,7.50
2018-12-20T14:55:57.138Z,7.50
2018-12-20T14:58:31.297Z,7.50
2018-12-20T15:01:05.161Z,7.50
2018-12-20T15:03:39.384Z,7.50
2018-12-20T15:06:13.632Z,7.50
2018-12-20T15:08:47.955Z,7.50
2018-12-20T15:11:26.052Z,7.50
2018-12-20T15:14:01.105Z,7.50
2018-12-20T15:16:36.093Z,7.50
2018-12-20T15:19:10.444Z,7.50
2018-12-20T15:21:44.498Z,7.50
2018-12-20T15:24:18.570Z,7.50
2018-12-20T15:26:52.414Z,7.50
2018-12-20T15:29:26.725Z,7.50
2018-12-20T15:32:00.868Z,7.50
2018-12-20T15:34:35.238Z,7.40
2018-12-20T15:37:09.199Z,7.40
2018-12-20T15:39:43.273Z,7.40
2018-12-20T15:42:17.223Z,7.40
2018-12-20T15:44:51.603Z,7.40
2018-12-20T15:47:25.631Z,7.50
2018-12-20T15:49:59.819Z,7.50
2018-12-20T15:52:33.889Z,7.50
2018-12-20T15:55:07.927Z,7.40
2018-12-20T15:57:41.742Z,7.40
2018-12-20T16:00:15.930Z,7.40
2018-12-20T16:02:49.952Z,7.40
2018-12-20T16:05:24.112Z,7.40
2018-12-20T16:08:00.107Z,7.40
2018-12-20T16:10:34.749Z,7.40
2018-12-20T16:13:08.658Z,7.40
2018-12-20T16:15:42.808Z,7.40
2018-12-20T16:18:16.716Z,7.40
2018-12-20T16:20:50.843Z,7.40
2018-12-20T16:23:24.771Z,7.40
2018-12-20T16:25:58.771Z,7.40
2018-12-20T16:28:32.655Z,7.30
2018-12-20T16:31:06.872Z,7.30
2018-12-20T16:33:40.810Z,7.20
2018-12-20T16:36:15.302Z,7.20
2018-12-20T16:38:49.937Z,7.20
2018-12-20T16:41:24.218Z,7.20
2018-12-20T16:43:58.018Z,7.20
2018-12-20T16:46:32.171Z,7.20
2018-12-20T16:49:13.554Z,7.20
2018-12-20T16:51:42.351Z,7.20
2018-12-20T16:54:16.439Z,7.20
2018-12-20T16:56:50.846Z,7.20
2018-12-20T16:59:24.889Z,7.20
2018-12-20T17:01:59.102Z,7.20
2018-12-20T17:04:32.955Z,7.20
2018-12-20T17:07:07.265Z,7.20
2018-12-20T17:09:41.110Z,7.20
2018-12-20T17:12:15.061Z,7.20
2018-12-20T17:14:48.975Z,7.20
2018-12-20T17:17:22.935Z,7.20
2018-12-20T17:19:57.295Z,7.20
2018-12-20T17:22:31.659Z,7.10
2018-12-20T17:25:05.751Z,7.20
2018-12-20T17:27:39.842Z,7.10
2018-12-20T17:30:13.844Z,7.10
2018-12-20T17:32:48.065Z,7.10
2018-12-20T17:35:22.385Z,7.10
2018-12-20T17:37:56.712Z,7.10
2018-12-20T17:40:30.646Z,7.10
2018-12-20T17:43:04.935Z,7.00
2018-12-20T17:45:38.874Z,7.00
2018-12-20T17:48:12.870Z,6.90
2018-12-20T17:50:46.860Z,6.90
2018-12-20T17:53:20.922Z,6.90
2018-12-20T17:55:54.866Z,6.80
2018-12-20T17:58:28.892Z,6.80
2018-12-20T18:01:02.870Z,6.70
2018-12-20T18:03:37.127Z,6.60
2018-12-20T18:06:11.237Z,6.60
2018-12-20T18:08:46.141Z,6.60
2018-12-20T18:11:21.538Z,6.60
2018-12-20T18:13:56.127Z,6.70
2018-12-20T18:16:30.200Z,6.70
2018-12-20T18:19:04.372Z,6.60
2018-12-20T18:21:38.821Z,6.60
2018-12-20T18:24:13.114Z,6.60
2018-12-20T18:26:47.839Z,6.60
2018-12-20T18:29:22.174Z,6.70
2018-12-20T18:31:56.163Z,6.70
2018-12-20T18:34:30.290Z,6.70
2018-12-20T18:37:04.311Z,6.80
2018-12-20T18:39:38.900Z,6.90
2018-12-20T18:42:12.870Z,6.90
2018-12-20T18:44:47.165Z,6.90
2018-12-20T18:47:22.006Z,6.90
2018-12-20T18:49:56.116Z,6.90
2018-12-20T18:52:30.191Z,6.90
2018-12-20T18:55:05.031Z,7.00
2018-12-20T18:57:39.151Z,7.00
2018-12-20T19:00:13.467Z,7.00
2018-12-20T19:02:47.484Z,7.00
2018-12-20T19:05:21.687Z,7.00
2018-12-20T19:07:55.936Z,7.00
2018-12-20T19:10:30.546Z,7.00
2018-12-20T19:13:04.419Z,7.00
2018-12-20T19:15:38.458Z,7.00
2018-12-20T19:18:12.368Z,7.00
2018-12-20T19:20:46.679Z,7.10
2018-12-20T19:23:20.573Z,7.10
2018-12-20T19:25:54.917Z,7.00
2018-12-20T19:28:29.058Z,7.00
2018-12-20T19:31:03.136Z,7.00
2018-12-20T19:33:37.004Z,7.00
2018-12-20T19:36:11.267Z,7.00
2018-12-20T19:38:45.480Z,7.00
2018-12-20T19:41:19.795Z,7.00
2018-12-20T19:43:53.811Z,7.00
2018-12-20T19:46:28.236Z,7.00
2018-12-20T19:49:02.695Z,7.00
2018-12-20T19:51:37.262Z,7.00
2018-12-20T19:54:11.287Z,6.90
2018-12-20T19:56:45.510Z,6.90
2018-12-20T19:59:19.575Z,6.90
2018-12-20T20:01:53.745Z,6.80
2018-12-20T20:04:27.703Z,6.80
2018-12-20T20:07:01.920Z,6.80
2018-12-20T20:09:35.926Z,6.80
2018-12-20T20:12:10.276Z,6.90
2018-12-20T20:14:44.223Z,6.90
2018-12-20T20:17:18.886Z,6.90
2018-12-20T20:19:59.738Z,6.90
2018-12-20T20:22:29.012Z,7.00
2018-12-20T20:25:03.725Z,7.00
2018-12-20T20:27:37.745Z,7.00
2018-12-20T20:30:13.566Z,7.00
2018-12-20T20:32:48.019Z,6.90
2018-12-20T20:35:22.230Z,7.00
2018-12-20T20:37:56.566Z,7.00
2018-12-20T20:40:30.867Z,7.00
2018-12-20T20:43:04.794Z,7.10
2018-12-20T20:45:39.155Z,7.10
2018-12-20T20:48:13.317Z,7.00
2018-12-20T20:50:47.783Z,7.00
2018-12-20T20:53:21.844Z,7.00
2018-12-20T20:55:57.490Z,7.00
2018-12-20T20:58:31.412Z,7.00
2018-12-20T21:01:05.763Z,7.00
2018-12-20T21:03:39.563Z,7.00
2018-12-20T21:06:14.204Z,7.00
2018-12-20T21:08:48.021Z,7.00
2018-12-20T21:11:22.010Z,7.00
2018-12-20T21:13:55.930Z,7.00
2018-12-20T21:16:30.017Z,7.00
2018-12-20T21:19:03.868Z,7.00
2018-12-20T21:21:38.034Z,7.00
2018-12-20T21:24:12.032Z,7.00
2018-12-20T21:26:46.252Z,7.00
2018-12-20T21:29:20.771Z,7.00
2018-12-20T21:31:54.893Z,7.10
2018-12-20T21:34:28.718Z,7.10
2018-12-20T21:37:04.456Z,7.10
2018-12-20T21:39:38.420Z,7.10
2018-12-20T21:42:12.476Z,7.10
2018-12-20T21:44:46.430Z,7.10
2018-12-20T21:47:20.499Z,7.10
2018-12-20T21:49:54.592Z,7.10
2018-12-20T21:52:29.222Z,7.10
2018-12-20T21:55:03.273Z,7.10
2018-12-20T21:57:37.547Z,7.10
2018-12-20T22:00:11.642Z,7.10
2018-12-20T22:02:45.802Z,7.10
2018-12-20T22:05:19.737Z,7.10
2018-12-20T22:07:54.130Z,7.10
2018-12-20T22:10:28.161Z,7.10
2018-12-20T22:13:02.366Z,7.10
2018-12-20T22:15:36.306Z,7.10
2018-12-20T22:18:10.482Z,7.10
2018-12-20T22:20:47.416Z,7.10
2018-12-20T22:23:20.862Z,7.10
2018-12-20T22:25:55.458Z,7.20
2018-12-20T22:28:29.678Z,7.20
2018-12-20T22:31:04.433Z,7.20
2018-12-20T22:33:38.650Z,7.20
2018-12-20T22:36:12.762Z,7.20
2018-12-20T22:38:46.775Z,7.20
2018-12-20T22:41:20.712Z,7.20
2018-12-20T22:43:54.797Z,7.20
2018-12-20T22:46:29.309Z,7.20
2018-12-20T22:49:03.547Z,7.20
2018-12-20T22:54:17.250Z,7.20
2018-12-20T22:56:51.338Z,7.20
2018-12-20T22:59:25.511Z,7.20
2018-12-20T23:01:59.446Z,7.20
2018-12-20T23:04:33.650Z,7.20
2018-12-20T23:07:07.702Z,7.30
2018-12-20T23:09:42.168Z,7.30
2018-12-20T23:12:17.966Z,7.30
2018-12-20T23:14:52.356Z,7.30
2018-12-20T23:17:27.595Z,7.30
2018-12-20T23:20:01.856Z,7.30
2018-12-20T23:22:35.924Z,7.30
2018-12-20T23:25:10.068Z,7.30
2018-12-20T23:27:44.284Z,7.30
2018-12-20T23:30:18.244Z,7.30
2018-12-20T23:32:52.488Z,7.30
2018-12-20T23:35:26.694Z,7.30
2018-12-20T23:38:00.687Z,7.30
2018-12-20T23:40:34.719Z,7.20
2018-12-20T23:43:08.722Z,7.20
2018-12-20T23:45:42.689Z,7.30
2018-12-20T23:48:17.162Z,7.30
2018-12-20T23:50:51.271Z,7.20
2018-12-20T23:53:25.239Z,7.20
2018-12-20T23:55:59.291Z,7.20
2018-12-20T23:58:33.262Z,7.20
